FW7161 Weather Reports


Display with metric or nautical units.
time (UTC)temp
F
wind
direction
speed
MPH
gust
MPH
rain 1hr
in
rain 24hr
in
rain mn
in
humidity
%
barometer
mb
20240526062135 48 19 5.0 5.0 0.00 0.00 0.00 69 1014.4
20240526060635 48 19 5.0 5.0 0.00 0.00 0.00 69 1014.4
20240526055135 48 346 5.0 7.0 0.00 0.00 0.00 69 1014.7
20240526053634 48 0 10.0 11.0 0.00 0.00 0.00 69 1014.6
20240526052133 49 357 5.0 7.0 0.00 0.00 0.00 69 1015.0
20240526050631 48 330 6.0 7.0 0.00 0.00 0.00 71 1015.3
20240526045131 49 333 3.0 5.0 0.00 0.00 0.00 69 1015.0
20240526043631 50 2 13.0 15.0 0.00 0.00 0.00 66 1014.8
20240526042131 50 332 9.0 14.0 0.00 0.00 0.00 67 1014.9
20240526040629 51 7 11.0 13.0 0.00 0.00 0.00 67 1014.9
20240526035128 51 357 16.0 18.0 0.00 0.00 0.00 66 1014.6
20240526033627 52 358 14.0 15.0 0.00 0.00 0.00 66 1014.4
20240526032126 52 11 15.0 17.0 0.00 0.00 0.00 64 1014.1
20240526030626 52 33 8.0 13.0 0.00 0.00 0.00 63 1013.6
20240526025126 53 10 8.0 9.0 0.00 0.00 0.00 62 1013.6
20240526023625 54 359 7.0 11.0 0.00 0.00 0.00 61 1013.2
20240526022123 55 5 12.0 13.0 0.00 0.00 0.00 60 1012.7
20240526020622 55 30 7.0 11.0 0.00 0.00 0.00 59 1012.6
20240526015121 56 33 10.0 14.0 0.00 0.00 0.00 57 1012.5
20240526013622 59 19 13.0 17.0 0.00 0.00 0.00 52 1012.4
20240526012120 59 43 8.0 9.0 0.00 0.00 0.00 49 1012.0
20240526010621 62 51 13.0 14.0 0.00 0.00 0.00 44 1011.6
20240526005119 64 71 11.0 13.0 0.00 0.00 0.00 36 1011.3
20240526003619 64 341 7.0 9.0 0.00 0.00 0.00 35 1011.0
20240526002117 68 342 7.0 9.0 0.00 0.00 0.00 33 1010.9
20240526000616 70 315 12.0 14.0 0.00 0.00 0.00 24 1010.8
20240525235116 68 242 15.0 17.0 0.00 0.00 0.00 22 1010.9
20240525233615 69 249 14.0 17.0 0.00 0.00 0.00 21 1010.3
20240525232114 72 252 14.0 17.0 0.00 0.00 0.00 20 1010.2
20240525230613 73 263 7.0 8.0 0.00 0.00 0.00 20 1010.0
20240525225111 70 227 7.0 9.0 0.00 0.00 0.00 19 1009.8
20240525223610 73 230 14.0 15.0 0.00 0.00 0.00 19 1009.7
20240525222110 72 234 10.0 14.0 0.00 0.00 0.00 21 1009.8
20240525220610 69 228 16.0 18.0 0.00 0.00 0.00 22 1009.9
20240525215110 72 243 15.0 20.0 0.00 0.00 0.00 20 1009.9
20240525213609 72 207 13.0 16.0 0.00 0.00 0.00 22 1009.7
20240525212108 72 273 7.0 10.0 0.00 0.00 0.00 21 1009.9
20240525210607 74 240 13.0 15.0 0.00 0.00 0.00 19 1009.8
20240525205106 73 263 18.0 20.0 0.00 0.00 0.00 19 1010.3
20240525203605 73 245 17.0 18.0 0.00 0.00 0.00 18 1010.0
20240525202104 74 230 21.0 26.0 0.00 0.00 0.00 16 1009.6
20240525200604 73 233 9.0 9.0 0.00 0.00 0.00 19 1009.8
20240525195103 73 241 16.0 18.0 0.00 0.00 0.00 17 1009.8
20240525193604 73 235 14.0 18.0 0.00 0.00 0.00 18 1009.7
20240525192104 74 223 11.0 13.0 0.00 0.00 0.00 16 1010.0
20240525190603 74 217 21.0 27.0 0.00 0.00 0.00 17 1010.0
20240525185103 73 202 13.0 15.0 0.00 0.00 0.00 18 1010.2
20240525183602 72 188 8.0 13.0 0.00 0.00 0.00 19 1009.8
20240525182101 71 251 12.0 14.0 0.00 0.00 0.00 17 1010.8
20240525180600 71 240 9.0 10.0 0.00 0.00 0.00 19 1010.8
20240525175059 72 193 10.0 13.0 0.00 0.00 0.00 21 1010.7
20240525173559 69 235 5.0 7.0 0.00 0.00 0.00 24 1011.0
20240525172058 69 262 4.0 6.0 0.00 0.00 0.00 23 1010.9
20240525170556 69 259 4.0 5.0 0.00 0.00 0.00 23 1011.1
20240525165056 68 198 6.0 8.0 0.00 0.00 0.00 25 1011.8
20240525163556 68 140 2.0 3.0 0.00 0.00 0.00 29 1011.5
20240525162055 66 131 4.0 7.0 0.00 0.00 0.00 30 1012.1
20240525160555 65 223 6.0 8.0 0.00 0.00 0.00 29 1012.2
20240525155054 65 200 9.0 14.0 0.00 0.00 0.00 30 1012.1
20240525153554 65 213 4.0 11.0 0.00 0.00 0.00 33 1012.2
20240525152054 62 187 3.0 3.0 0.00 0.00 0.00 33 1012.2
20240525150553 60 140 7.0 7.0 0.00 0.00 0.00 38 1012.6
20240525145052 59 138 9.0 10.0 0.00 0.00 0.00 39 1012.7
20240525143552 57 115 3.0 5.0 0.00 0.00 0.00 45 1012.7
20240525142050 54 91 2.0 2.0 0.00 0.00 0.00 51 1013.0
20240525140549 52 35 2.0 2.0 0.00 0.00 0.00 52 1013.1
20240525135048 51 23 2.0 2.0 0.00 0.00 0.00 54 1013.2
20240525133547 50 60 2.0 2.0 0.00 0.00 0.00 55 1013.5
20240525132047 50 76 3.0 5.0 0.00 0.00 0.00 53 1013.3
20240525130547 49 35 3.0 5.0 0.00 0.00 0.00 56 1013.7
20240525125046 47 60 4.0 6.0 0.00 0.00 0.00 59 1013.8
20240525123544 45 13 2.0 2.0 0.00 0.00 0.00 63 1013.9
20240525122044 43 31 3.0 3.0 0.00 0.00 0.00 67 1013.7
20240525120543 42 39 2.0 2.0 0.00 0.00 0.00 64 1013.9
20240525115044 42 15 2.0 2.0 0.00 0.00 0.00 65 1014.3
20240525113542 41 0 1.0 1.0 0.00 0.00 0.00 67 1014.3
20240525112041 41 336 2.0 2.0 0.00 0.00 0.00 68 1014.2
20240525110540 40 353 3.0 3.0 0.00 0.00 0.00 69 1014.3